sensor_id;sensor_type;location;lat;lon;timestamp;pressure;altitude;pressure_sealevel;temperature;humidity
29907;BME280;16776;50.958;10.994;2023-07-29T00:01:27;97856.94;;;17.84;100.00
29907;BME280;16776;50.958;10.994;2023-07-29T00:03:53;97851.91;;;17.81;100.00
29907;BME280;16776;50.958;10.994;2023-07-29T00:06:20;97854.63;;;17.79;100.00
29907;BME280;16776;50.958;10.994;2023-07-29T00:08:47;97862.66;;;17.76;100.00
29907;BME280;16776;50.958;10.994;2023-07-29T00:11:13;97863.69;;;17.74;100.00
29907;BME280;16776;50.958;10.994;2023-07-29T00:13:40;97861.28;;;17.71;100.00
29907;BME280;16776;50.958;10.994;2023-07-29T00:16:07;97863.88;;;17.71;100.00
29907;BME280;16776;50.958;10.994;2023-07-29T00:18:34;97864.28;;;17.65;100.00
29907;BME280;16776;50.958;10.994;2023-07-29T00:21:01;97856.75;;;17.60;100.00
29907;BME280;16776;50.958;10.994;2023-07-29T00:23:29;97855.13;;;17.59;100.00
29907;BME280;16776;50.958;10.994;2023-07-29T00:25:55;97854.56;;;17.54;100.00
29907;BME280;16776;50.958;10.994;2023-07-29T00:28:22;97858.25;;;17.52;100.00
29907;BME280;16776;50.958;10.994;2023-07-29T00:30:48;97863.63;;;17.49;100.00
29907;BME280;16776;50.958;10.994;2023-07-29T00:33:16;97861.03;;;17.49;100.00
29907;BME280;16776;50.958;10.994;2023-07-29T00:35:43;97857.06;;;17.43;100.00
29907;BME280;16776;50.958;10.994;2023-07-29T00:38:09;97871.84;;;17.43;100.00
29907;BME280;16776;50.958;10.994;2023-07-29T00:40:36;97858.63;;;17.33;100.00
29907;BME280;16776;50.958;10.994;2023-07-29T00:43:03;97869.47;;;17.39;100.00
29907;BME280;16776;50.958;10.994;2023-07-29T00:45:30;97856.13;;;17.31;100.00
29907;BME280;16776;50.958;10.994;2023-07-29T00:47:58;97866.03;;;17.39;100.00
29907;BME280;16776;50.958;10.994;2023-07-29T00:50:26;97856.34;;;17.41;100.00
29907;BME280;16776;50.958;10.994;2023-07-29T00:52:54;97853.13;;;17.37;100.00
29907;BME280;16776;50.958;10.994;2023-07-29T00:55:20;97860.31;;;17.34;100.00
29907;BME280;16776;50.958;10.994;2023-07-29T00:57:47;97856.03;;;17.33;100.00
29907;BME280;16776;50.958;10.994;2023-07-29T01:00:17;97861.34;;;17.31;100.00
29907;BME280;16776;50.958;10.994;2023-07-29T01:02:43;97858.91;;;17.28;100.00
29907;BME280;16776;50.958;10.994;2023-07-29T01:05:12;97855.78;;;17.23;100.00
29907;BME280;16776;50.958;10.994;2023-07-29T01:07:46;97857.91;;;17.31;100.00
29907;BME280;16776;50.958;10.994;2023-07-29T01:10:21;97845.47;;;17.22;100.00
29907;BME280;16776;50.958;10.994;2023-07-29T01:12:58;97853.09;;;17.25;100.00
29907;BME280;16776;50.958;10.994;2023-07-29T01:15:33;97851.53;;;17.22;100.00
29907;BME280;16776;50.958;10.994;2023-07-29T01:18:05;97848.22;;;17.20;100.00
29907;BME280;16776;50.958;10.994;2023-07-29T01:20:33;97837.56;;;17.11;100.00
29907;BME280;16776;50.958;10.994;2023-07-29T01:23:04;97833.28;;;17.10;100.00
29907;BME280;16776;50.958;10.994;2023-07-29T01:25:32;97833.28;;;17.10;100.00
29907;BME280;16776;50.958;10.994;2023-07-29T01:27:59;97831.09;;;17.04;100.00
29907;BME280;16776;50.958;10.994;2023-07-29T01:30:30;97829.13;;;17.07;100.00
29907;BME280;16776;50.958;10.994;2023-07-29T01:33:04;97804.31;;;16.89;100.00
29907;BME280;16776;50.958;10.994;2023-07-29T01:35:38;97823.69;;;16.97;100.00
29907;BME280;16776;50.958;10.994;2023-07-29T01:38:10;97828.69;;;17.01;100.00
29907;BME280;16776;50.958;10.994;2023-07-29T01:40:42;97835.66;;;17.00;100.00
29907;BME280;16776;50.958;10.994;2023-07-29T01:43:10;97836.03;;;16.94;100.00
29907;BME280;16776;50.958;10.994;2023-07-29T01:45:36;97842.06;;;16.94;100.00
29907;BME280;16776;50.958;10.994;2023-07-29T01:48:04;97833.38;;;16.95;100.00
29907;BME280;16776;50.958;10.994;2023-07-29T01:50:31;97836.69;;;16.97;100.00
29907;BME280;16776;50.958;10.994;2023-07-29T01:52:58;97829.63;;;16.99;100.00
29907;BME280;16776;50.958;10.994;2023-07-29T01:55:24;97826.09;;;17.01;100.00
29907;BME280;16776;50.958;10.994;2023-07-29T01:57:52;97818.47;;;16.97;100.00
29907;BME280;16776;50.958;10.994;2023-07-29T02:00:19;97814.22;;;16.96;100.00
29907;BME280;16776;50.958;10.994;2023-07-29T02:02:46;97836.28;;;17.04;100.00
29907;BME280;16776;50.958;10.994;2023-07-29T02:05:12;97829.41;;;17.03;100.00
29907;BME280;16776;50.958;10.994;2023-07-29T02:07:39;97834.63;;;17.03;100.00
29907;BME280;16776;50.958;10.994;2023-07-29T02:10:06;97829.41;;;17.03;100.00
29907;BME280;16776;50.958;10.994;2023-07-29T02:12:34;97832.13;;;17.01;100.00
29907;BME280;16776;50.958;10.994;2023-07-29T02:15:02;97831.91;;;17.04;100.00
29907;BME280;16776;50.958;10.994;2023-07-29T02:17:30;97834.94;;;16.98;100.00
29907;BME280;16776;50.958;10.994;2023-07-29T02:19:56;97833.38;;;16.95;100.00
29907;BME280;16776;50.958;10.994;2023-07-29T02:22:23;97838.72;;;16.92;100.00
29907;BME280;16776;50.958;10.994;2023-07-29T02:24:50;97840.50;;;16.92;100.00
29907;BME280;16776;50.958;10.994;2023-07-29T02:27:16;97832.91;;;16.89;100.00
29907;BME280;16776;50.958;10.994;2023-07-29T02:29:43;97833.00;;;16.87;100.00
29907;BME280;16776;50.958;10.994;2023-07-29T02:32:10;97834.69;;;16.88;100.00
29907;BME280;16776;50.958;10.994;2023-07-29T02:34:37;97833.09;;;16.86;100.00
29907;BME280;16776;50.958;10.994;2023-07-29T02:37:04;97841.72;;;16.86;100.00
29907;BME280;16776;50.958;10.994;2023-07-29T02:39:31;97834.69;;;16.88;100.00
29907;BME280;16776;50.958;10.994;2023-07-29T02:41:57;97836.31;;;16.89;100.00
29907;BME280;16776;50.958;10.994;2023-07-29T02:44:24;97837.06;;;16.91;100.00
29907;BME280;16776;50.958;10.994;2023-07-29T02:46:50;97838.63;;;16.94;100.00
29907;BME280;16776;50.958;10.994;2023-07-29T02:49:23;97831.31;;;17.01;100.00
29907;BME280;16776;50.958;10.994;2023-07-29T02:51:50;97835.00;;;16.96;100.00
29907;BME280;16776;50.958;10.994;2023-07-29T02:54:16;97824.59;;;16.96;100.00
29907;BME280;16776;50.958;10.994;2023-07-29T02:56:43;97825.56;;;16.95;100.00
29907;BME280;16776;50.958;10.994;2023-07-29T02:59:09;97825.44;;;16.97;100.00
29907;BME280;16776;50.958;10.994;2023-07-29T03:01:36;97826.28;;;16.97;100.00
29907;BME280;16776;50.958;10.994;2023-07-29T03:04:03;97827.22;;;16.96;100.00
29907;BME280;16776;50.958;10.994;2023-07-29T03:06:31;97818.47;;;16.97;100.00
29907;BME280;16776;50.958;10.994;2023-07-29T03:08:57;97817.81;;;16.94;100.00
29907;BME280;16776;50.958;10.994;2023-07-29T03:11:24;97818.75;;;16.93;100.00
29907;BME280;16776;50.958;10.994;2023-07-29T03:13:50;97809.38;;;16.90;100.00
29907;BME280;16776;50.958;10.994;2023-07-29T03:16:17;97818.94;;;16.90;100.00
29907;BME280;16776;50.958;10.994;2023-07-29T03:18:44;97800.03;;;16.88;100.00
29907;BME280;16776;50.958;10.994;2023-07-29T03:21:11;97793.66;;;16.79;100.00
29907;BME280;16776;50.958;10.994;2023-07-29T03:23:39;97798.25;;;16.88;100.00
29907;BME280;16776;50.958;10.994;2023-07-29T03:26:06;97795.84;;;16.85;100.00
29907;BME280;16776;50.958;10.994;2023-07-29T03:28:37;97783.78;;;16.84;100.00
29907;BME280;16776;50.958;10.994;2023-07-29T03:31:04;97788.13;;;16.84;100.00
29907;BME280;16776;50.958;10.994;2023-07-29T03:33:30;97795.00;;;16.85;100.00
29907;BME280;16776;50.958;10.994;2023-07-29T03:35:57;97785.75;;;16.81;100.00
29907;BME280;16776;50.958;10.994;2023-07-29T03:38:24;97805.41;;;16.85;100.00
29907;BME280;16776;50.958;10.994;2023-07-29T03:40:51;97795.00;;;16.85;100.00
29907;BME280;16776;50.958;10.994;2023-07-29T03:43:18;97802.72;;;16.86;100.00
29907;BME280;16776;50.958;10.994;2023-07-29T03:45:45;97804.41;;;16.87;100.00
29907;BME280;16776;50.958;10.994;2023-07-29T03:48:11;97808.75;;;16.87;100.00
29907;BME280;16776;50.958;10.994;2023-07-29T03:50:38;97806.06;;;16.88;100.00
29907;BME280;16776;50.958;10.994;2023-07-29T03:53:05;97801.88;;;16.86;100.00
29907;BME280;16776;50.958;10.994;2023-07-29T03:55:32;97796.78;;;16.84;100.00
29907;BME280;16776;50.958;10.994;2023-07-29T03:58:00;97800.88;;;16.88;100.00
29907;BME280;16776;50.958;10.994;2023-07-29T04:00:27;97796.69;;;16.86;100.00
29907;BME280;16776;50.958;10.994;2023-07-29T04:02:54;97784.09;;;16.80;100.00
29907;BME280;16776;50.958;10.994;2023-07-29T04:05:20;97791.56;;;16.84;100.00
29907;BME280;16776;50.958;10.994;2023-07-29T04:07:47;97785.44;;;16.85;100.00
29907;BME280;16776;50.958;10.994;2023-07-29T04:10:14;97782.00;;;16.85;100.00
29907;BME280;16776;50.958;10.994;2023-07-29T04:12:40;97775.97;;;16.84;100.00
29907;BME280;16776;50.958;10.994;2023-07-29T04:15:09;97771.41;;;16.88;100.00
29907;BME280;16776;50.958;10.994;2023-07-29T04:17:35;97775.03;;;16.85;100.00
29907;BME280;16776;50.958;10.994;2023-07-29T04:20:02;97779.41;;;16.85;100.00
29907;BME280;16776;50.958;10.994;2023-07-29T04:22:29;97777.66;;;16.85;100.00
29907;BME280;16776;50.958;10.994;2023-07-29T04:24:55;97771.50;;;16.86;100.00
29907;BME280;16776;50.958;10.994;2023-07-29T04:27:22;97766.31;;;16.86;100.00
29907;BME280;16776;50.958;10.994;2023-07-29T04:29:49;97768.91;;;16.86;100.00
29907;BME280;16776;50.958;10.994;2023-07-29T04:32:17;97759.03;;;16.91;100.00
29907;BME280;16776;50.958;10.994;2023-07-29T04:34:43;97756.44;;;16.91;100.00
29907;BME280;16776;50.958;10.994;2023-07-29T04:37:10;97759.59;;;16.96;100.00
29907;BME280;16776;50.958;10.994;2023-07-29T04:39:36;97770.53;;;17.02;100.00
29907;BME280;16776;50.958;10.994;2023-07-29T04:42:03;97762.44;;;17.06;100.00
29907;BME280;16776;50.958;10.994;2023-07-29T04:44:30;97760.25;;;17.13;100.00
29907;BME280;16776;50.958;10.994;2023-07-29T04:46:57;97757.22;;;17.19;100.00
29907;BME280;16776;50.958;10.994;2023-07-29T04:49:25;97752.44;;;17.25;100.00
29907;BME280;16776;50.958;10.994;2023-07-29T04:51:51;97760.03;;;17.28;100.00
29907;BME280;16776;50.958;10.994;2023-07-29T04:54:18;97759.75;;;17.33;100.00
29907;BME280;16776;50.958;10.994;2023-07-29T04:56:46;97761.19;;;17.37;100.00
29907;BME280;16776;50.958;10.994;2023-07-29T04:59:12;97757.44;;;17.41;100.00
29907;BME280;16776;50.958;10.994;2023-07-29T05:01:39;97759.75;;;17.46;100.00
29907;BME280;16776;50.958;10.994;2023-07-29T05:04:07;97760.34;;;17.49;100.00
29907;BME280;16776;50.958;10.994;2023-07-29T05:06:35;97754.72;;;17.55;100.00
29907;BME280;16776;50.958;10.994;2023-07-29T05:09:12;97755.75;;;17.65;100.00
29907;BME280;16776;50.958;10.994;2023-07-29T05:11:39;97757.97;;;17.59;100.00
29907;BME280;16776;50.958;10.994;2023-07-29T05:14:06;97747.66;;;17.57;100.00
29907;BME280;16776;50.958;10.994;2023-07-29T05:16:34;97745.78;;;17.59;100.00
29907;BME280;16776;50.958;10.994;2023-07-29T05:19:00;97757.00;;;17.60;100.00
29907;BME280;16776;50.958;10.994;2023-07-29T05:21:27;97756.19;;;17.59;100.00
29907;BME280;16776;50.958;10.994;2023-07-29T05:23:55;97758.56;;;17.62;100.00
29907;BME280;16776;50.958;10.994;2023-07-29T05:26:22;97759.31;;;17.64;100.00
29907;BME280;16776;50.958;10.994;2023-07-29T05:28:48;97749.19;;;17.72;100.00
29907;BME280;16776;50.958;10.994;2023-07-29T05:31:15;97759.72;;;17.84;100.00
29907;BME280;16776;50.958;10.994;2023-07-29T05:33:41;97754.59;;;17.95;100.00
29907;BME280;16776;50.958;10.994;2023-07-29T05:36:08;97755.47;;;18.06;100.00
29907;BME280;16776;50.958;10.994;2023-07-29T05:38:34;97743.34;;;18.18;100.00
29907;BME280;16776;50.958;10.994;2023-07-29T05:41:02;97734.16;;;18.25;100.00
29907;BME280;16776;50.958;10.994;2023-07-29T05:43:29;97744.31;;;18.41;100.00
29907;BME280;16776;50.958;10.994;2023-07-29T05:45:55;97754.72;;;18.53;100.00
29907;BME280;16776;50.958;10.994;2023-07-29T05:48:22;97756.75;;;18.61;100.00
29907;BME280;16776;50.958;10.994;2023-07-29T05:50:48;97753.56;;;18.69;100.00
29907;BME280;16776;50.958;10.994;2023-07-29T05:53:15;97744.50;;;18.74;100.00
29907;BME280;16776;50.958;10.994;2023-07-29T05:55:42;97744.97;;;18.79;100.00
29907;BME280;16776;50.958;10.994;2023-07-29T05:58:10;97741.91;;;18.85;100.00
29907;BME280;16776;50.958;10.994;2023-07-29T06:00:36;97735.50;;;18.89;100.00
29907;BME280;16776;50.958;10.994;2023-07-29T06:05:32;97744.31;;;19.00;100.00
29907;BME280;16776;50.958;10.994;2023-07-29T06:07:59;97752.75;;;19.03;100.00
29907;BME280;16776;50.958;10.994;2023-07-29T06:10:26;97749.09;;;19.06;100.00
29907;BME280;16776;50.958;10.994;2023-07-29T06:12:53;97757.75;;;19.06;100.00
29907;BME280;16776;50.958;10.994;2023-07-29T06:15:20;97767.09;;;19.09;100.00
29907;BME280;16776;50.958;10.994;2023-07-29T06:17:48;97766.50;;;19.05;100.00
29907;BME280;16776;50.958;10.994;2023-07-29T06:20:14;97773.50;;;19.05;100.00
29907;BME280;16776;50.958;10.994;2023-07-29T06:22:41;97780.63;;;19.03;100.00
29907;BME280;16776;50.958;10.994;2023-07-29T06:25:08;97775.50;;;19.01;100.00
29907;BME280;16776;50.958;10.994;2023-07-29T06:27:35;97773.88;;;19.00;100.00
29907;BME280;16776;50.958;10.994;2023-07-29T06:30:01;97761.75;;;18.99;100.00
29907;BME280;16776;50.958;10.994;2023-07-29T06:32:29;97763.44;;;19.00;100.00
29907;BME280;16776;50.958;10.994;2023-07-29T06:34:56;97755.91;;;18.95;100.00
29907;BME280;16776;50.958;10.994;2023-07-29T06:37:22;97768.13;;;18.95;100.00
29907;BME280;16776;50.958;10.994;2023-07-29T06:39:49;97768.97;;;18.95;100.00
29907;BME280;16776;50.958;10.994;2023-07-29T06:42:15;97771.72;;;18.94;100.00
29907;BME280;16776;50.958;10.994;2023-07-29T06:44:42;97763.16;;;18.92;100.00
29907;BME280;16776;50.958;10.994;2023-07-29T06:47:11;97757.94;;;18.92;100.00
29907;BME280;16776;50.958;10.994;2023-07-29T06:49:39;97754.38;;;18.93;100.00
29907;BME280;16776;50.958;10.994;2023-07-29T06:52:05;97750.09;;;18.92;100.00
29907;BME280;16776;50.958;10.994;2023-07-29T06:54:32;97762.06;;;18.94;100.00
29907;BME280;16776;50.958;10.994;2023-07-29T06:56:58;97758.41;;;18.97;100.00
29907;BME280;16776;50.958;10.994;2023-07-29T06:59:25;97771.13;;;19.02;100.00
29907;BME280;16776;50.958;10.994;2023-07-29T07:01:52;97765.69;;;19.05;100.00
29907;BME280;16776;50.958;10.994;2023-07-29T07:04:18;97754.16;;;19.07;100.00
29907;BME280;16776;50.958;10.994;2023-07-29T07:06:46;97755.63;;;19.11;100.00
29907;BME280;16776;50.958;10.994;2023-07-29T07:09:13;97752.28;;;19.09;100.00
29907;BME280;16776;50.958;10.994;2023-07-29T07:11:40;97758.22;;;19.11;100.00
29907;BME280;16776;50.958;10.994;2023-07-29T07:14:06;97753.72;;;19.13;100.00
29907;BME280;16776;50.958;10.994;2023-07-29T07:16:34;97747.44;;;19.16;100.00
29907;BME280;16776;50.958;10.994;2023-07-29T07:19:02;97741.38;;;19.15;100.00
29907;BME280;16776;50.958;10.994;2023-07-29T07:21:28;97752.09;;;19.23;100.00
29907;BME280;16776;50.958;10.994;2023-07-29T07:23:56;97741.91;;;19.31;100.00
29907;BME280;16776;50.958;10.994;2023-07-29T07:26:23;97747.63;;;19.36;100.00
29907;BME280;16776;50.958;10.994;2023-07-29T07:28:50;97733.16;;;19.44;100.00
29907;BME280;16776;50.958;10.994;2023-07-29T07:31:17;97743.59;;;19.55;100.00
29907;BME280;16776;50.958;10.994;2023-07-29T07:33:44;97736.84;;;19.63;100.00
29907;BME280;16776;50.958;10.994;2023-07-29T07:36:11;97727.44;;;19.72;100.00
29907;BME280;16776;50.958;10.994;2023-07-29T07:38:37;97738.00;;;19.82;100.00
29907;BME280;16776;50.958;10.994;2023-07-29T07:41:05;97736.69;;;19.98;100.00
29907;BME280;16776;50.958;10.994;2023-07-29T07:43:32;97723.38;;;20.12;100.00
29907;BME280;16776;50.958;10.994;2023-07-29T07:45:59;97728.06;;;20.30;100.00
29907;BME280;16776;50.958;10.994;2023-07-29T07:48:26;97736.69;;;20.41;100.00
29907;BME280;16776;50.958;10.994;2023-07-29T07:50:53;97731.31;;;20.54;100.00
29907;BME280;16776;50.958;10.994;2023-07-29T07:53:20;97731.41;;;20.64;100.00
29907;BME280;16776;50.958;10.994;2023-07-29T07:55:46;97717.84;;;20.70;100.00
29907;BME280;16776;50.958;10.994;2023-07-29T07:58:14;97726.84;;;20.77;100.00
29907;BME280;16776;50.958;10.994;2023-07-29T08:00:41;97718.88;;;20.78;100.00
29907;BME280;16776;50.958;10.994;2023-07-29T08:03:08;97720.38;;;20.81;100.00
29907;BME280;16776;50.958;10.994;2023-07-29T08:05:34;97715.75;;;20.84;100.00
29907;BME280;16776;50.958;10.994;2023-07-29T08:08:01;97720.47;;;20.90;100.00
29907;BME280;16776;50.958;10.994;2023-07-29T08:10:28;97717.56;;;20.93;100.00
29907;BME280;16776;50.958;10.994;2023-07-29T08:12:54;97729.31;;;20.99;100.00
29907;BME280;16776;50.958;10.994;2023-07-29T08:15:22;97721.78;;;21.06;100.00
29907;BME280;16776;50.958;10.994;2023-07-29T08:17:49;97712.97;;;21.07;100.00
29907;BME280;16776;50.958;10.994;2023-07-29T08:20:15;97724.72;;;21.12;100.00
29907;BME280;16776;50.958;10.994;2023-07-29T08:22:42;97727.22;;;21.14;100.00
29907;BME280;16776;50.958;10.994;2023-07-29T08:25:08;97723.75;;;21.13;100.00
29907;BME280;16776;50.958;10.994;2023-07-29T08:27:35;97729.84;;;21.14;100.00
29907;BME280;16776;50.958;10.994;2023-07-29T08:30:02;97725.81;;;21.10;100.00
29907;BME280;16776;50.958;10.994;2023-07-29T08:32:32;97719.88;;;21.08;100.00
29907;BME280;16776;50.958;10.994;2023-07-29T08:34:58;97716.13;;;21.01;100.00
29907;BME280;16776;50.958;10.994;2023-07-29T08:37:25;97711.16;;;20.98;100.00
29907;BME280;16776;50.958;10.994;2023-07-29T08:39:55;97718.56;;;20.92;100.00
29907;BME280;16776;50.958;10.994;2023-07-29T08:42:23;97712.34;;;20.93;100.00
29907;BME280;16776;50.958;10.994;2023-07-29T08:44:54;97719.50;;;20.91;100.00
29907;BME280;16776;50.958;10.994;2023-07-29T08:47:21;97719.03;;;20.86;100.00
29907;BME280;16776;50.958;10.994;2023-07-29T08:49:50;97720.72;;;20.87;100.00
29907;BME280;16776;50.958;10.994;2023-07-29T08:52:19;97714.81;;;20.74;100.00
29907;BME280;16776;50.958;10.994;2023-07-29T08:54:47;97731.69;;;20.81;100.00
29907;BME280;16776;50.958;10.994;2023-07-29T08:57:14;97718.44;;;20.73;100.00
29907;BME280;16776;50.958;10.994;2023-07-29T08:59:41;97733.84;;;20.76;100.00
29907;BME280;16776;50.958;10.994;2023-07-29T09:02:07;97733.75;;;20.78;100.00
29907;BME280;16776;50.958;10.994;2023-07-29T09:04:34;97729.84;;;20.72;100.00
29907;BME280;16776;50.958;10.994;2023-07-29T09:07:02;97734.38;;;20.70;100.00
29907;BME280;16776;50.958;10.994;2023-07-29T09:09:31;97737.50;;;20.64;100.00
29907;BME280;16776;50.958;10.994;2023-07-29T09:11:58;97742.72;;;20.64;100.00
29907;BME280;16776;50.958;10.994;2023-07-29T09:14:25;97739.38;;;20.62;100.00
29907;BME280;16776;50.958;10.994;2023-07-29T09:16:51;97737.03;;;20.59;100.00
29907;BME280;16776;50.958;10.994;2023-07-29T09:19:18;97745.00;;;20.58;100.00
29907;BME280;16776;50.958;10.994;2023-07-29T09:21:46;97736.88;;;20.61;100.00
29907;BME280;16776;50.958;10.994;2023-07-29T09:24:16;97737.59;;;20.63;100.00
29907;BME280;16776;50.958;10.994;2023-07-29T09:26:48;97735.59;;;20.66;100.00
29907;BME280;16776;50.958;10.994;2023-07-29T09:29:15;97724.06;;;20.58;100.00
29907;BME280;16776;50.958;10.994;2023-07-29T09:31:42;97725.47;;;20.62;100.00
29907;BME280;16776;50.958;10.994;2023-07-29T09:34:15;97722.22;;;20.69;100.00
29907;BME280;16776;50.958;10.994;2023-07-29T09:36:42;97720.97;;;20.64;100.00
29907;BME280;16776;50.958;10.994;2023-07-29T09:39:11;97717.84;;;20.70;100.00
29907;BME280;16776;50.958;10.994;2023-07-29T09:41:39;97719.75;;;20.68;100.00
29907;BME280;16776;50.958;10.994;2023-07-29T09:44:07;97719.88;;;20.66;100.00
29907;BME280;16776;50.958;10.994;2023-07-29T09:46:34;97731.88;;;20.69;100.00
29907;BME280;16776;50.958;10.994;2023-07-29T09:49:02;97726.63;;;20.69;100.00
29907;BME280;16776;50.958;10.994;2023-07-29T09:51:29;97722.50;;;20.66;100.00
29907;BME280;16776;50.958;10.994;2023-07-29T09:53:56;97726.41;;;20.72;100.00
29907;BME280;16776;50.958;10.994;2023-07-29T09:56:25;97723.66;;;20.73;100.00
29907;BME280;16776;50.958;10.994;2023-07-29T09:58:55;97719.56;;;20.80;100.00
29907;BME280;16776;50.958;10.994;2023-07-29T10:01:22;97715.81;;;20.73;100.00
29907;BME280;16776;50.958;10.994;2023-07-29T10:03:49;97710.09;;;20.68;100.00
29907;BME280;16776;50.958;10.994;2023-07-29T10:06:17;97718.66;;;20.70;100.00
29907;BME280;16776;50.958;10.994;2023-07-29T10:08:45;97733.03;;;20.76;100.00
29907;BME280;16776;50.958;10.994;2023-07-29T10:11:11;97734.13;;;20.73;100.00
29907;BME280;16776;50.958;10.994;2023-07-29T10:13:39;97748.16;;;20.72;100.00
29907;BME280;16776;50.958;10.994;2023-07-29T10:16:08;97736.47;;;20.76;100.00
29907;BME280;16776;50.958;10.994;2023-07-29T10:18:35;97751.84;;;20.70;100.00
29907;BME280;16776;50.958;10.994;2023-07-29T10:21:06;97752.56;;;20.72;100.00
29907;BME280;16776;50.958;10.994;2023-07-29T10:23:37;97755.06;;;20.73;100.00
29907;BME280;16776;50.958;10.994;2023-07-29T10:26:10;97752.44;;;20.73;100.00
29907;BME280;16776;50.958;10.994;2023-07-29T10:28:40;97744.94;;;20.69;100.00
29907;BME280;16776;50.958;10.994;2023-07-29T10:31:09;97728.19;;;20.71;100.00
29907;BME280;16776;50.958;10.994;2023-07-29T10:33:37;97728.91;;;20.73;100.00
29907;BME280;16776;50.958;10.994;2023-07-29T10:36:05;97709.88;;;20.71;100.00
29907;BME280;16776;50.958;10.994;2023-07-29T10:38:32;97729.50;;;20.86;100.00
29907;BME280;16776;50.958;10.994;2023-07-29T10:40:59;97722.13;;;20.91;100.00
29907;BME280;16776;50.958;10.994;2023-07-29T10:43:27;97712.81;;;20.99;100.00
29907;BME280;16776;50.958;10.994;2023-07-29T10:45:55;97707.06;;;21.05;100.00
29907;BME280;16776;50.958;10.994;2023-07-29T10:48:41;97699.69;;;21.19;100.00
29907;BME280;16776;50.958;10.994;2023-07-29T10:51:27;97702.50;;;21.27;100.00
29907;BME280;16776;50.958;10.994;2023-07-29T10:53:57;97695.63;;;21.26;100.00
29907;BME280;16776;50.958;10.994;2023-07-29T10:56:28;97702.88;;;21.44;100.00
29907;BME280;16776;50.958;10.994;2023-07-29T10:59:01;97699.34;;;21.54;100.00
29907;BME280;16776;50.958;10.994;2023-07-29T11:01:29;97702.13;;;21.62;100.00
29907;BME280;16776;50.958;10.994;2023-07-29T11:04:24;97698.06;;;21.89;100.00
29907;BME280;16776;50.958;10.994;2023-07-29T11:07:23;97695.34;;;22.09;100.00
29907;BME280;16776;50.958;10.994;2023-07-29T11:09:57;97700.34;;;22.22;100.00
29907;BME280;16776;50.958;10.994;2023-07-29T11:12:34;97686.97;;;22.44;100.00
29907;BME280;16776;50.958;10.994;2023-07-29T11:15:03;97684.94;;;22.58;100.00
29907;BME280;16776;50.958;10.994;2023-07-29T11:17:32;97686.84;;;22.75;100.00
29907;BME280;16776;50.958;10.994;2023-07-29T11:20:01;97687.91;;;22.91;100.00
29907;BME280;16776;50.958;10.994;2023-07-29T11:22:29;97681.00;;;23.00;100.00
29907;BME280;16776;50.958;10.994;2023-07-29T11:24:55;97684.72;;;23.07;100.00
29907;BME280;16776;50.958;10.994;2023-07-29T11:27:22;97682.47;;;23.12;100.00
29907;BME280;16776;50.958;10.994;2023-07-29T11:29:49;97678.63;;;23.16;100.00
29907;BME280;16776;50.958;10.994;2023-07-29T11:32:16;97679.69;;;23.23;100.00
29907;BME280;16776;50.958;10.994;2023-07-29T11:34:42;97686.72;;;23.33;100.00
29907;BME280;16776;50.958;10.994;2023-07-29T11:37:11;97678.91;;;23.50;100.00
29907;BME280;16776;50.958;10.994;2023-07-29T11:39:39;97686.31;;;23.64;100.00
29907;BME280;16776;50.958;10.994;2023-07-29T11:42:06;97682.69;;;23.75;100.00
29907;BME280;16776;50.958;10.994;2023-07-29T11:44:33;97685.78;;;23.88;100.00
29907;BME280;16776;50.958;10.994;2023-07-29T11:46:59;97681.97;;;24.00;100.00
29907;BME280;16776;50.958;10.994;2023-07-29T11:49:26;97668.91;;;24.08;100.00
29907;BME280;16776;50.958;10.994;2023-07-29T11:51:53;97661.81;;;24.19;100.00
29907;BME280;16776;50.958;10.994;2023-07-29T11:54:21;97665.84;;;24.31;100.00
29907;BME280;16776;50.958;10.994;2023-07-29T11:56:47;97674.28;;;24.34;100.00
29907;BME280;16776;50.958;10.994;2023-07-29T11:59:14;97673.00;;;24.38;100.00
29907;BME280;16776;50.958;10.994;2023-07-29T12:01:42;97670.69;;;24.35;100.00
29907;BME280;16776;50.958;10.994;2023-07-29T12:04:09;97666.25;;;24.36;100.00
29907;BME280;16776;50.958;10.994;2023-07-29T12:06:37;97661.69;;;24.38;100.00
29907;BME280;16776;50.958;10.994;2023-07-29T12:09:04;97655.41;;;24.39;100.00
29907;BME280;16776;50.958;10.994;2023-07-29T12:11:33;97652.84;;;24.47;100.00
29907;BME280;16776;50.958;10.994;2023-07-29T12:13:59;97648.94;;;24.51;100.00
29907;BME280;16776;50.958;10.994;2023-07-29T12:16:26;97655.25;;;24.58;100.00
29907;BME280;16776;50.958;10.994;2023-07-29T12:19:00;97653.84;;;24.64;100.00
29907;BME280;16776;50.958;10.994;2023-07-29T12:21:26;97635.22;;;24.65;100.00
29907;BME280;16776;50.958;10.994;2023-07-29T12:23:53;97643.66;;;24.69;100.00
29907;BME280;16776;50.958;10.994;2023-07-29T12:26:19;97646.78;;;24.72;100.00
29907;BME280;16776;50.958;10.994;2023-07-29T12:28:47;97641.59;;;24.80;100.00
29907;BME280;16776;50.958;10.994;2023-07-29T12:31:14;97626.63;;;24.81;100.00
29907;BME280;16776;50.958;10.994;2023-07-29T12:33:40;97641.66;;;24.88;100.00
29907;BME280;16776;50.958;10.994;2023-07-29T12:36:08;97631.78;;;24.90;99.73
29907;BME280;16776;50.958;10.994;2023-07-29T12:38:35;97636.91;;;24.92;99.93
29907;BME280;16776;50.958;10.994;2023-07-29T12:41:02;97644.00;;;24.92;100.00
29907;BME280;16776;50.958;10.994;2023-07-29T12:43:29;97642.03;;;24.94;99.61
29907;BME280;16776;50.958;10.994;2023-07-29T12:45:57;97637.94;;;24.99;100.00